sensor_id;sensor_type;location;lat;lon;timestamp;P1;durP1;ratioP1;P2;durP2;ratioP2
28724;SDS011;43472;48.980;9.646;2022-12-07T00:04:35;8.73;;;6.22;;
28724;SDS011;43472;48.980;9.646;2022-12-07T00:09:37;9.55;;;6.18;;
28724;SDS011;43472;48.980;9.646;2022-12-07T00:14:40;9.60;;;6.93;;
28724;SDS011;43472;48.980;9.646;2022-12-07T00:19:41;9.30;;;7.15;;
28724;SDS011;43472;48.980;9.646;2022-12-07T00:24:43;9.50;;;6.43;;
28724;SDS011;43472;48.980;9.646;2022-12-07T00:29:45;10.80;;;6.35;;
28724;SDS011;43472;48.980;9.646;2022-12-07T00:34:46;8.07;;;6.32;;
28724;SDS011;43472;48.980;9.646;2022-12-07T00:39:48;11.18;;;6.18;;
28724;SDS011;43472;48.980;9.646;2022-12-07T00:44:50;8.57;;;6.43;;
28724;SDS011;43472;48.980;9.646;2022-12-07T00:49:52;8.57;;;5.55;;
28724;SDS011;43472;48.980;9.646;2022-12-07T00:54:53;8.63;;;5.45;;
28724;SDS011;43472;48.980;9.646;2022-12-07T00:59:55;7.88;;;6.10;;
28724;SDS011;43472;48.980;9.646;2022-12-07T01:04:59;9.13;;;6.32;;
28724;SDS011;43472;48.980;9.646;2022-12-07T01:10:00;10.52;;;6.35;;
28724;SDS011;43472;48.980;9.646;2022-12-07T01:15:03;9.20;;;6.85;;
28724;SDS011;43472;48.980;9.646;2022-12-07T01:20:05;11.65;;;6.95;;
28724;SDS011;43472;48.980;9.646;2022-12-07T01:25:08;12.05;;;7.28;;
28724;SDS011;43472;48.980;9.646;2022-12-07T01:30:12;10.93;;;6.95;;
28724;SDS011;43472;48.980;9.646;2022-12-07T01:35:14;10.32;;;6.97;;
28724;SDS011;43472;48.980;9.646;2022-12-07T01:40:16;13.23;;;7.53;;
28724;SDS011;43472;48.980;9.646;2022-12-07T01:50:38;9.43;;;6.63;;
28724;SDS011;43472;48.980;9.646;2022-12-07T01:55:42;11.73;;;6.85;;
28724;SDS011;43472;48.980;9.646;2022-12-07T02:00:46;10.70;;;6.88;;
28724;SDS011;43472;48.980;9.646;2022-12-07T02:05:49;12.20;;;7.43;;
28724;SDS011;43472;48.980;9.646;2022-12-07T02:10:54;12.05;;;7.65;;
28724;SDS011;43472;48.980;9.646;2022-12-07T02:37:26;11.48;;;7.53;;
28724;SDS011;43472;48.980;9.646;2022-12-07T02:42:40;11.32;;;7.40;;
28724;SDS011;43472;48.980;9.646;2022-12-07T02:47:47;12.02;;;7.70;;
28724;SDS011;43472;48.980;9.646;2022-12-07T02:52:52;12.18;;;7.38;;
28724;SDS011;43472;48.980;9.646;2022-12-07T02:58:11;13.00;;;7.78;;
28724;SDS011;43472;48.980;9.646;2022-12-07T03:03:22;11.20;;;7.03;;
28724;SDS011;43472;48.980;9.646;2022-12-07T03:08:30;14.90;;;7.65;;
28724;SDS011;43472;48.980;9.646;2022-12-07T03:14:24;11.55;;;7.32;;
28724;SDS011;43472;48.980;9.646;2022-12-07T03:19:26;11.93;;;7.53;;
28724;SDS011;43472;48.980;9.646;2022-12-07T03:24:30;13.50;;;7.10;;
28724;SDS011;43472;48.980;9.646;2022-12-07T03:29:38;12.48;;;7.45;;
28724;SDS011;43472;48.980;9.646;2022-12-07T03:34:46;12.95;;;8.60;;
28724;SDS011;43472;48.980;9.646;2022-12-07T03:45:12;16.85;;;9.50;;
28724;SDS011;43472;48.980;9.646;2022-12-07T03:55:35;14.60;;;8.75;;
28724;SDS011;43472;48.980;9.646;2022-12-07T04:00:41;19.98;;;9.18;;
28724;SDS011;43472;48.980;9.646;2022-12-07T04:05:43;18.27;;;10.07;;
28724;SDS011;43472;48.980;9.646;2022-12-07T04:10:46;17.10;;;10.55;;
28724;SDS011;43472;48.980;9.646;2022-12-07T04:15:48;18.77;;;10.90;;
28724;SDS011;43472;48.980;9.646;2022-12-07T04:20:50;16.35;;;9.50;;
28724;SDS011;43472;48.980;9.646;2022-12-07T04:25:52;16.42;;;10.35;;
28724;SDS011;43472;48.980;9.646;2022-12-07T04:30:54;16.27;;;9.80;;
28724;SDS011;43472;48.980;9.646;2022-12-07T04:35:56;14.82;;;9.32;;
28724;SDS011;43472;48.980;9.646;2022-12-07T04:41:03;17.60;;;10.55;;
28724;SDS011;43472;48.980;9.646;2022-12-07T04:46:07;15.85;;;9.18;;
28724;SDS011;43472;48.980;9.646;2022-12-07T04:51:09;13.07;;;7.90;;
28724;SDS011;43472;48.980;9.646;2022-12-07T04:56:11;13.95;;;8.75;;
28724;SDS011;43472;48.980;9.646;2022-12-07T05:01:14;14.52;;;8.75;;
28724;SDS011;43472;48.980;9.646;2022-12-07T05:06:17;16.48;;;9.60;;
28724;SDS011;43472;48.980;9.646;2022-12-07T05:11:19;15.02;;;9.23;;
28724;SDS011;43472;48.980;9.646;2022-12-07T05:16:39;20.45;;;11.20;;
28724;SDS011;43472;48.980;9.646;2022-12-07T05:21:42;54.85;;;21.60;;
28724;SDS011;43472;48.980;9.646;2022-12-07T05:26:44;57.67;;;27.23;;
28724;SDS011;43472;48.980;9.646;2022-12-07T05:31:46;21.05;;;11.18;;
28724;SDS011;43472;48.980;9.646;2022-12-07T05:36:48;18.08;;;10.70;;
28724;SDS011;43472;48.980;9.646;2022-12-07T05:41:51;21.55;;;10.95;;
28724;SDS011;43472;48.980;9.646;2022-12-07T05:47:12;14.93;;;9.43;;
28724;SDS011;43472;48.980;9.646;2022-12-07T05:52:15;16.17;;;10.20;;
28724;SDS011;43472;48.980;9.646;2022-12-07T05:57:17;15.13;;;9.15;;
28724;SDS011;43472;48.980;9.646;2022-12-07T06:02:19;16.95;;;10.88;;
28724;SDS011;43472;48.980;9.646;2022-12-07T06:07:20;15.48;;;10.60;;
28724;SDS011;43472;48.980;9.646;2022-12-07T06:12:23;18.02;;;12.23;;
28724;SDS011;43472;48.980;9.646;2022-12-07T06:17:39;24.02;;;14.02;;
28724;SDS011;43472;48.980;9.646;2022-12-07T06:22:41;23.42;;;13.25;;
28724;SDS011;43472;48.980;9.646;2022-12-07T06:27:43;15.77;;;10.48;;
28724;SDS011;43472;48.980;9.646;2022-12-07T06:32:45;15.95;;;9.60;;
28724;SDS011;43472;48.980;9.646;2022-12-07T06:37:46;14.30;;;9.55;;
28724;SDS011;43472;48.980;9.646;2022-12-07T06:42:49;16.00;;;9.35;;
28724;SDS011;43472;48.980;9.646;2022-12-07T06:47:51;13.93;;;9.00;;
28724;SDS011;43472;48.980;9.646;2022-12-07T06:52:53;14.85;;;8.63;;
28724;SDS011;43472;48.980;9.646;2022-12-07T06:57:55;13.32;;;8.57;;
28724;SDS011;43472;48.980;9.646;2022-12-07T07:02:57;17.15;;;10.35;;
28724;SDS011;43472;48.980;9.646;2022-12-07T07:07:59;13.55;;;8.85;;
28724;SDS011;43472;48.980;9.646;2022-12-07T07:18:24;10.05;;;6.28;;
28724;SDS011;43472;48.980;9.646;2022-12-07T07:23:26;13.73;;;8.80;;
28724;SDS011;43472;48.980;9.646;2022-12-07T07:28:28;13.10;;;8.57;;
28724;SDS011;43472;48.980;9.646;2022-12-07T07:33:30;18.00;;;10.98;;
28724;SDS011;43472;48.980;9.646;2022-12-07T07:38:32;20.35;;;9.25;;
28724;SDS011;43472;48.980;9.646;2022-12-07T07:43:35;16.67;;;9.15;;
28724;SDS011;43472;48.980;9.646;2022-12-07T07:48:36;12.75;;;8.23;;
28724;SDS011;43472;48.980;9.646;2022-12-07T07:53:38;15.10;;;9.38;;
28724;SDS011;43472;48.980;9.646;2022-12-07T07:58:41;21.00;;;12.82;;
28724;SDS011;43472;48.980;9.646;2022-12-07T08:03:43;12.95;;;8.18;;
28724;SDS011;43472;48.980;9.646;2022-12-07T08:08:45;13.45;;;7.45;;
28724;SDS011;43472;48.980;9.646;2022-12-07T08:13:47;13.23;;;8.68;;
28724;SDS011;43472;48.980;9.646;2022-12-07T08:18:49;13.90;;;8.95;;
28724;SDS011;43472;48.980;9.646;2022-12-07T08:23:52;14.15;;;7.38;;
28724;SDS011;43472;48.980;9.646;2022-12-07T08:28:54;15.45;;;8.02;;
28724;SDS011;43472;48.980;9.646;2022-12-07T08:33:56;11.40;;;7.65;;
28724;SDS011;43472;48.980;9.646;2022-12-07T08:38:58;10.57;;;6.65;;
28724;SDS011;43472;48.980;9.646;2022-12-07T08:44:20;10.40;;;6.47;;
28724;SDS011;43472;48.980;9.646;2022-12-07T08:49:24;13.20;;;7.70;;
28724;SDS011;43472;48.980;9.646;2022-12-07T08:54:32;10.52;;;6.65;;
28724;SDS011;43472;48.980;9.646;2022-12-07T08:59:36;11.50;;;7.30;;
28724;SDS011;43472;48.980;9.646;2022-12-07T09:04:38;10.43;;;6.95;;
28724;SDS011;43472;48.980;9.646;2022-12-07T09:09:40;11.63;;;6.68;;
28724;SDS011;43472;48.980;9.646;2022-12-07T09:14:43;9.85;;;6.50;;
28724;SDS011;43472;48.980;9.646;2022-12-07T09:19:44;10.93;;;6.45;;
28724;SDS011;43472;48.980;9.646;2022-12-07T09:24:46;10.63;;;7.25;;
28724;SDS011;43472;48.980;9.646;2022-12-07T09:29:48;11.57;;;6.90;;
28724;SDS011;43472;48.980;9.646;2022-12-07T09:34:51;11.43;;;6.78;;
28724;SDS011;43472;48.980;9.646;2022-12-07T09:39:53;14.43;;;7.43;;
28724;SDS011;43472;48.980;9.646;2022-12-07T09:44:55;11.50;;;7.82;;
28724;SDS011;43472;48.980;9.646;2022-12-07T09:50:00;11.25;;;6.97;;
28724;SDS011;43472;48.980;9.646;2022-12-07T09:55:14;11.10;;;7.00;;
28724;SDS011;43472;48.980;9.646;2022-12-07T10:00:18;10.52;;;6.28;;
28724;SDS011;43472;48.980;9.646;2022-12-07T10:05:35;12.23;;;6.97;;
28724;SDS011;43472;48.980;9.646;2022-12-07T10:10:39;11.65;;;7.25;;
28724;SDS011;43472;48.980;9.646;2022-12-07T10:20:47;11.98;;;7.55;;
28724;SDS011;43472;48.980;9.646;2022-12-07T10:25:49;10.02;;;5.97;;
28724;SDS011;43472;48.980;9.646;2022-12-07T10:36:37;9.05;;;5.75;;
28724;SDS011;43472;48.980;9.646;2022-12-07T10:42:24;15.00;;;6.93;;
28724;SDS011;43472;48.980;9.646;2022-12-07T11:03:21;10.13;;;6.45;;
28724;SDS011;43472;48.980;9.646;2022-12-07T11:08:55;10.50;;;6.47;;
28724;SDS011;43472;48.980;9.646;2022-12-07T11:14:06;13.73;;;6.20;;
28724;SDS011;43472;48.980;9.646;2022-12-07T11:19:41;9.02;;;5.68;;
28724;SDS011;43472;48.980;9.646;2022-12-07T11:25:40;12.02;;;7.32;;
28724;SDS011;43472;48.980;9.646;2022-12-07T11:35:57;11.50;;;5.68;;
28724;SDS011;43472;48.980;9.646;2022-12-07T11:41:03;8.97;;;5.90;;
28724;SDS011;43472;48.980;9.646;2022-12-07T11:46:16;8.85;;;5.28;;
28724;SDS011;43472;48.980;9.646;2022-12-07T11:51:20;9.45;;;6.32;;
28724;SDS011;43472;48.980;9.646;2022-12-07T11:56:24;9.15;;;4.93;;
28724;SDS011;43472;48.980;9.646;2022-12-07T12:06:34;7.28;;;4.75;;
28724;SDS011;43472;48.980;9.646;2022-12-07T12:22:10;10.70;;;5.63;;
28724;SDS011;43472;48.980;9.646;2022-12-07T12:27:22;9.77;;;4.95;;
28724;SDS011;43472;48.980;9.646;2022-12-07T12:32:44;7.47;;;4.13;;
28724;SDS011;43472;48.980;9.646;2022-12-07T12:37:46;6.20;;;4.15;;
28724;SDS011;43472;48.980;9.646;2022-12-07T12:48:04;5.70;;;3.75;;
28724;SDS011;43472;48.980;9.646;2022-12-07T12:53:26;10.10;;;5.22;;
28724;SDS011;43472;48.980;9.646;2022-12-07T12:58:29;10.70;;;5.22;;
28724;SDS011;43472;48.980;9.646;2022-12-07T13:03:33;10.98;;;4.32;;
28724;SDS011;43472;48.980;9.646;2022-12-07T13:08:36;9.75;;;5.55;;
28724;SDS011;43472;48.980;9.646;2022-12-07T13:13:42;9.77;;;5.20;;
28724;SDS011;43472;48.980;9.646;2022-12-07T13:18:44;12.05;;;5.90;;
28724;SDS011;43472;48.980;9.646;2022-12-07T13:28:50;9.27;;;5.47;;
28724;SDS011;43472;48.980;9.646;2022-12-07T13:33:52;11.13;;;6.43;;
28724;SDS011;43472;48.980;9.646;2022-12-07T13:38:58;12.63;;;6.68;;
28724;SDS011;43472;48.980;9.646;2022-12-07T13:44:12;10.07;;;6.30;;
28724;SDS011;43472;48.980;9.646;2022-12-07T13:49:17;8.63;;;6.20;;
28724;SDS011;43472;48.980;9.646;2022-12-07T13:54:24;11.98;;;7.18;;
28724;SDS011;43472;48.980;9.646;2022-12-07T13:59:25;18.75;;;8.20;;
28724;SDS011;43472;48.980;9.646;2022-12-07T14:04:35;15.75;;;7.30;;
28724;SDS011;43472;48.980;9.646;2022-12-07T14:09:38;10.03;;;7.40;;
28724;SDS011;43472;48.980;9.646;2022-12-07T14:14:40;17.65;;;7.07;;
28724;SDS011;43472;48.980;9.646;2022-12-07T14:19:55;13.40;;;8.07;;
28724;SDS011;43472;48.980;9.646;2022-12-07T14:30:17;13.25;;;7.60;;
28724;SDS011;43472;48.980;9.646;2022-12-07T14:35:20;11.98;;;7.18;;
28724;SDS011;43472;48.980;9.646;2022-12-07T14:40:22;12.13;;;7.60;;
28724;SDS011;43472;48.980;9.646;2022-12-07T14:45:26;12.77;;;8.15;;
28724;SDS011;43472;48.980;9.646;2022-12-07T14:50:27;15.65;;;9.43;;
28724;SDS011;43472;48.980;9.646;2022-12-07T14:55:30;18.42;;;10.25;;
28724;SDS011;43472;48.980;9.646;2022-12-07T15:00:33;19.05;;;9.60;;
28724;SDS011;43472;48.980;9.646;2022-12-07T15:05:35;17.48;;;9.30;;
28724;SDS011;43472;48.980;9.646;2022-12-07T15:10:38;11.02;;;6.78;;
28724;SDS011;43472;48.980;9.646;2022-12-07T15:15:41;16.55;;;9.82;;
28724;SDS011;43472;48.980;9.646;2022-12-07T15:20:43;20.30;;;10.40;;
28724;SDS011;43472;48.980;9.646;2022-12-07T15:25:46;21.50;;;8.88;;
28724;SDS011;43472;48.980;9.646;2022-12-07T15:30:49;21.48;;;11.02;;
28724;SDS011;43472;48.980;9.646;2022-12-07T15:35:51;20.63;;;10.02;;
28724;SDS011;43472;48.980;9.646;2022-12-07T15:40:53;18.10;;;8.88;;
28724;SDS011;43472;48.980;9.646;2022-12-07T15:45:55;23.50;;;13.27;;
28724;SDS011;43472;48.980;9.646;2022-12-07T15:51:03;16.13;;;9.80;;
28724;SDS011;43472;48.980;9.646;2022-12-07T15:56:09;18.98;;;10.23;;
28724;SDS011;43472;48.980;9.646;2022-12-07T16:01:15;20.13;;;11.82;;
28724;SDS011;43472;48.980;9.646;2022-12-07T16:06:19;14.80;;;9.23;;
28724;SDS011;43472;48.980;9.646;2022-12-07T16:11:20;15.90;;;9.07;;
28724;SDS011;43472;48.980;9.646;2022-12-07T16:16:23;21.13;;;11.05;;
28724;SDS011;43472;48.980;9.646;2022-12-07T16:21:24;27.83;;;14.00;;
28724;SDS011;43472;48.980;9.646;2022-12-07T16:26:27;21.95;;;11.00;;
28724;SDS011;43472;48.980;9.646;2022-12-07T16:31:29;18.75;;;10.35;;
28724;SDS011;43472;48.980;9.646;2022-12-07T16:36:31;20.30;;;11.95;;
28724;SDS011;43472;48.980;9.646;2022-12-07T16:41:53;19.65;;;10.80;;
28724;SDS011;43472;48.980;9.646;2022-12-07T16:46:55;21.05;;;12.02;;
28724;SDS011;43472;48.980;9.646;2022-12-07T16:51:57;34.28;;;17.27;;
28724;SDS011;43472;48.980;9.646;2022-12-07T16:57:19;41.03;;;17.27;;
28724;SDS011;43472;48.980;9.646;2022-12-07T17:02:24;17.45;;;9.45;;
28724;SDS011;43472;48.980;9.646;2022-12-07T17:07:26;21.27;;;12.25;;
28724;SDS011;43472;48.980;9.646;2022-12-07T17:12:29;23.10;;;12.85;;
28724;SDS011;43472;48.980;9.646;2022-12-07T17:17:30;26.20;;;11.52;;
28724;SDS011;43472;48.980;9.646;2022-12-07T17:22:32;22.77;;;12.18;;
28724;SDS011;43472;48.980;9.646;2022-12-07T17:27:34;23.85;;;11.00;;
28724;SDS011;43472;48.980;9.646;2022-12-07T17:32:36;20.05;;;10.10;;
28724;SDS011;43472;48.980;9.646;2022-12-07T17:37:39;35.97;;;20.00;;
28724;SDS011;43472;48.980;9.646;2022-12-07T17:42:44;27.08;;;14.55;;
28724;SDS011;43472;48.980;9.646;2022-12-07T17:47:48;23.35;;;12.27;;
28724;SDS011;43472;48.980;9.646;2022-12-07T17:52:50;20.17;;;12.73;;
28724;SDS011;43472;48.980;9.646;2022-12-07T17:58:10;22.50;;;12.52;;
28724;SDS011;43472;48.980;9.646;2022-12-07T18:03:12;23.73;;;13.50;;
28724;SDS011;43472;48.980;9.646;2022-12-07T18:08:14;24.45;;;13.70;;
28724;SDS011;43472;48.980;9.646;2022-12-07T18:13:16;28.35;;;17.35;;
28724;SDS011;43472;48.980;9.646;2022-12-07T18:18:36;27.73;;;16.92;;
28724;SDS011;43472;48.980;9.646;2022-12-07T18:23:39;20.90;;;12.88;;
28724;SDS011;43472;48.980;9.646;2022-12-07T18:28:41;24.20;;;14.48;;
28724;SDS011;43472;48.980;9.646;2022-12-07T18:33:45;24.77;;;14.85;;
28724;SDS011;43472;48.980;9.646;2022-12-07T18:38:47;27.95;;;16.38;;
28724;SDS011;43472;48.980;9.646;2022-12-07T18:43:48;22.52;;;14.10;;
28724;SDS011;43472;48.980;9.646;2022-12-07T18:48:50;25.30;;;15.65;;
28724;SDS011;43472;48.980;9.646;2022-12-07T18:53:55;31.23;;;17.25;;
28724;SDS011;43472;48.980;9.646;2022-12-07T18:58:59;25.70;;;14.23;;
28724;SDS011;43472;48.980;9.646;2022-12-07T19:04:40;28.98;;;13.70;;
28724;SDS011;43472;48.980;9.646;2022-12-07T19:09:43;24.15;;;12.27;;
28724;SDS011;43472;48.980;9.646;2022-12-07T19:14:44;21.25;;;11.95;;
28724;SDS011;43472;48.980;9.646;2022-12-07T19:19:46;22.98;;;13.13;;
28724;SDS011;43472;48.980;9.646;2022-12-07T19:24:49;20.55;;;11.52;;
28724;SDS011;43472;48.980;9.646;2022-12-07T19:29:53;45.65;;;24.55;;
28724;SDS011;43472;48.980;9.646;2022-12-07T19:34:55;22.23;;;12.57;;
28724;SDS011;43472;48.980;9.646;2022-12-07T19:39:57;24.63;;;14.77;;
28724;SDS011;43472;48.980;9.646;2022-12-07T19:44:59;22.40;;;12.60;;
28724;SDS011;43472;48.980;9.646;2022-12-07T19:50:01;31.20;;;17.92;;
28724;SDS011;43472;48.980;9.646;2022-12-07T19:55:03;20.77;;;11.80;;
28724;SDS011;43472;48.980;9.646;2022-12-07T20:00:07;23.85;;;14.00;;
28724;SDS011;43472;48.980;9.646;2022-12-07T20:05:09;38.38;;;19.40;;
28724;SDS011;43472;48.980;9.646;2022-12-07T20:10:12;25.45;;;14.90;;
28724;SDS011;43472;48.980;9.646;2022-12-07T20:15:14;43.75;;;23.77;;
28724;SDS011;43472;48.980;9.646;2022-12-07T20:20:16;24.77;;;14.38;;
28724;SDS011;43472;48.980;9.646;2022-12-07T20:25:18;28.25;;;17.75;;
28724;SDS011;43472;48.980;9.646;2022-12-07T20:30:21;20.05;;;11.95;;
28724;SDS011;43472;48.980;9.646;2022-12-07T20:35:24;22.08;;;12.45;;
28724;SDS011;43472;48.980;9.646;2022-12-07T20:40:26;23.02;;;12.38;;
28724;SDS011;43472;48.980;9.646;2022-12-07T20:45:28;22.88;;;12.77;;
28724;SDS011;43472;48.980;9.646;2022-12-07T20:50:30;22.75;;;12.82;;
28724;SDS011;43472;48.980;9.646;2022-12-07T20:55:32;23.63;;;13.10;;
28724;SDS011;43472;48.980;9.646;2022-12-07T21:00:34;32.45;;;16.70;;
28724;SDS011;43472;48.980;9.646;2022-12-07T21:05:37;25.38;;;14.50;;
28724;SDS011;43472;48.980;9.646;2022-12-07T21:10:39;37.75;;;17.92;;
28724;SDS011;43472;48.980;9.646;2022-12-07T21:15:41;25.92;;;15.38;;
28724;SDS011;43472;48.980;9.646;2022-12-07T21:20:42;31.83;;;15.82;;
28724;SDS011;43472;48.980;9.646;2022-12-07T21:25:44;34.67;;;16.70;;
28724;SDS011;43472;48.980;9.646;2022-12-07T21:30:46;31.02;;;15.90;;
28724;SDS011;43472;48.980;9.646;2022-12-07T21:36:09;23.65;;;14.32;;
28724;SDS011;43472;48.980;9.646;2022-12-07T21:41:15;22.48;;;13.38;;
28724;SDS011;43472;48.980;9.646;2022-12-07T21:46:19;23.13;;;12.80;;
28724;SDS011;43472;48.980;9.646;2022-12-07T21:51:31;26.95;;;13.15;;
28724;SDS011;43472;48.980;9.646;2022-12-07T21:56:34;20.10;;;11.77;;
28724;SDS011;43472;48.980;9.646;2022-12-07T22:01:38;18.73;;;12.05;;
28724;SDS011;43472;48.980;9.646;2022-12-07T22:06:42;20.33;;;11.60;;
28724;SDS011;43472;48.980;9.646;2022-12-07T22:11:44;21.75;;;10.43;;
28724;SDS011;43472;48.980;9.646;2022-12-07T22:16:46;17.27;;;9.88;;
28724;SDS011;43472;48.980;9.646;2022-12-07T22:21:48;18.45;;;11.20;;
28724;SDS011;43472;48.980;9.646;2022-12-07T22:26:50;20.63;;;10.65;;
28724;SDS011;43472;48.980;9.646;2022-12-07T22:31:52;18.08;;;10.10;;
28724;SDS011;43472;48.980;9.646;2022-12-07T22:36:55;15.55;;;9.35;;
28724;SDS011;43472;48.980;9.646;2022-12-07T22:41:57;18.60;;;10.73;;
28724;SDS011;43472;48.980;9.646;2022-12-07T22:46:59;20.77;;;10.50;;
28724;SDS011;43472;48.980;9.646;2022-12-07T22:52:01;20.70;;;11.20;;
28724;SDS011;43472;48.980;9.646;2022-12-07T22:57:04;19.65;;;10.85;;
28724;SDS011;43472;48.980;9.646;2022-12-07T23:02:06;17.73;;;9.90;;
28724;SDS011;43472;48.980;9.646;2022-12-07T23:07:08;19.25;;;10.93;;
28724;SDS011;43472;48.980;9.646;2022-12-07T23:12:10;17.52;;;10.13;;
28724;SDS011;43472;48.980;9.646;2022-12-07T23:17:31;17.73;;;10.57;;
28724;SDS011;43472;48.980;9.646;2022-12-07T23:22:35;20.15;;;11.27;;
28724;SDS011;43472;48.980;9.646;2022-12-07T23:27:37;18.73;;;9.82;;
28724;SDS011;43472;48.980;9.646;2022-12-07T23:32:39;18.75;;;10.48;;
28724;SDS011;43472;48.980;9.646;2022-12-07T23:37:41;17.27;;;10.70;;
28724;SDS011;43472;48.980;9.646;2022-12-07T23:42:43;19.45;;;10.07;;
28724;SDS011;43472;48.980;9.646;2022-12-07T23:47:45;23.17;;;11.50;;
28724;SDS011;43472;48.980;9.646;2022-12-07T23:52:47;16.88;;;9.30;;
28724;SDS011;43472;48.980;9.646;2022-12-07T23:57:49;19.40;;;10.48;;
